createdAt,value
2019-05-06T00:00:26.278Z,4.67
2019-05-06T00:02:55.450Z,4.87
2019-05-06T00:05:25.771Z,4.90
2019-05-06T00:07:55.062Z,5.20
2019-05-06T00:10:25.645Z,5.77
2019-05-06T00:12:54.885Z,4.90
2019-05-06T00:15:25.856Z,5.17
2019-05-06T00:17:55.193Z,4.67
2019-05-06T00:20:24.856Z,4.50
2019-05-06T00:22:57.106Z,4.77
2019-05-06T00:25:35.130Z,4.50
2019-05-06T00:28:24.411Z,3.97
2019-05-06T00:31:08.635Z,4.27
2019-05-06T00:33:26.603Z,4.50
2019-05-06T00:35:55.866Z,3.87
2019-05-06T00:38:26.150Z,3.97
2019-05-06T00:40:59.186Z,4.00
2019-05-06T00:43:28.533Z,4.17
2019-05-06T00:45:58.153Z,4.10
2019-05-06T00:48:27.413Z,4.00
2019-05-06T00:50:56.633Z,4.53
2019-05-06T00:53:27.627Z,4.03
2019-05-06T00:55:56.757Z,3.90
2019-05-06T00:58:26.379Z,4.50
2019-05-06T01:00:56.125Z,4.00
2019-05-06T01:03:25.455Z,3.83
2019-05-06T01:05:54.829Z,3.87
2019-05-06T01:08:24.189Z,3.90
2019-05-06T01:10:54.547Z,3.80
2019-05-06T01:13:30.526Z,3.70
2019-05-06T01:16:00.290Z,4.37
2019-05-06T01:18:30.016Z,4.13
2019-05-06T01:21:11.114Z,4.00
2019-05-06T01:23:43.723Z,3.87
2019-05-06T01:26:15.352Z,4.03
2019-05-06T01:28:45.931Z,4.47
2019-05-06T01:31:15.358Z,4.30
2019-05-06T01:33:45.294Z,4.20
2019-05-06T01:36:14.855Z,4.60
2019-05-06T01:38:54.475Z,4.23
2019-05-06T01:41:49.328Z,4.60
2019-05-06T01:44:19.543Z,4.23
2019-05-06T01:46:48.964Z,4.43
2019-05-06T01:49:18.426Z,4.40
2019-05-06T01:51:47.550Z,4.67
2019-05-06T01:54:17.155Z,4.93
2019-05-06T01:56:46.852Z,4.80
2019-05-06T01:59:16.064Z,4.70
2019-05-06T02:01:56.933Z,5.07
2019-05-06T02:04:16.753Z,4.37
2019-05-06T02:06:46.516Z,4.63
2019-05-06T02:09:16.561Z,4.60
2019-05-06T02:11:48.064Z,4.67
2019-05-06T02:14:17.706Z,4.57
2019-05-06T02:16:47.030Z,4.33
2019-05-06T02:19:16.183Z,4.87
2019-05-06T02:22:10.703Z,5.03
2019-05-06T02:24:47.322Z,4.50
2019-05-06T02:27:17.263Z,4.43
2019-05-06T02:30:08.884Z,4.97
2019-05-06T02:32:45.469Z,4.87
2019-05-06T02:35:34.715Z,5.00
2019-05-06T02:38:04.981Z,5.20
2019-05-06T02:40:34.639Z,5.20
2019-05-06T02:43:04.394Z,5.30
2019-05-06T02:45:34.013Z,4.70
2019-05-06T02:48:13.797Z,5.40
2019-05-06T02:51:05.685Z,5.37
2019-05-06T02:53:34.896Z,5.30
2019-05-06T02:56:04.669Z,4.80
2019-05-06T02:58:34.003Z,5.37
2019-05-06T03:01:03.766Z,5.60
2019-05-06T03:03:33.783Z,5.37
2019-05-06T03:06:04.405Z,5.60
2019-05-06T03:08:36.963Z,5.17
2019-05-06T03:11:06.336Z,5.47
2019-05-06T03:13:35.645Z,5.80
2019-05-06T03:16:05.883Z,4.80
2019-05-06T03:18:35.353Z,5.37
2019-05-06T03:21:24.722Z,4.93
2019-05-06T03:24:00.304Z,5.27
2019-05-06T03:26:33.164Z,5.70
2019-05-06T03:29:03.082Z,5.00
2019-05-06T03:31:36.501Z,5.37
2019-05-06T03:34:27.768Z,5.70
2019-05-06T03:36:40.729Z,4.60
2019-05-06T03:39:06.468Z,4.97
2019-05-06T03:41:36.894Z,5.23
2019-05-06T03:44:06.199Z,4.67
2019-05-06T03:46:54.177Z,4.90
2019-05-06T03:49:24.446Z,4.50
2019-05-06T03:51:56.476Z,5.13
2019-05-06T03:54:24.909Z,4.80
2019-05-06T03:56:54.708Z,4.77
2019-05-06T03:59:25.032Z,4.83
2019-05-06T04:01:55.437Z,4.93
2019-05-06T04:04:25.563Z,4.40
2019-05-06T04:06:54.731Z,4.43
2019-05-06T04:09:24.328Z,4.97
2019-05-06T04:11:54.316Z,4.17
2019-05-06T04:14:23.969Z,4.23
2019-05-06T04:17:09.138Z,3.87
2019-05-06T04:19:43.734Z,4.13
2019-05-06T04:22:23.727Z,3.70
2019-05-06T04:25:09.207Z,3.83
2019-05-06T04:27:47.055Z,3.50
2019-05-06T04:30:16.589Z,3.40
2019-05-06T04:32:45.858Z,3.37
2019-05-06T04:35:15.086Z,3.47
2019-05-06T04:37:45.120Z,3.17
2019-05-06T04:40:14.545Z,3.17
2019-05-06T04:42:44.592Z,3.40
2019-05-06T04:45:17.400Z,3.00
2019-05-06T04:47:45.375Z,3.10
2019-05-06T04:50:14.943Z,3.20
2019-05-06T04:52:44.143Z,3.30
2019-05-06T04:55:16.421Z,3.20
2019-05-06T04:57:45.694Z,2.97
2019-05-06T05:00:15.719Z,3.00
2019-05-06T05:02:46.667Z,5.50
2019-05-06T05:05:15.902Z,4.70
2019-05-06T05:07:45.475Z,3.63
2019-05-06T05:10:23.303Z,3.37
2019-05-06T05:13:00.155Z,3.10
2019-05-06T05:15:38.432Z,2.83
2019-05-06T05:18:31.876Z,3.43
2019-05-06T05:21:02.419Z,3.30
2019-05-06T05:23:32.490Z,3.20
2019-05-06T05:26:02.927Z,3.07
2019-05-06T05:28:32.380Z,3.70
2019-05-06T05:31:03.048Z,3.20
2019-05-06T05:33:33.108Z,3.40
2019-05-06T05:36:06.789Z,3.30
2019-05-06T05:38:36.769Z,3.23
2019-05-06T05:41:06.319Z,3.90
2019-05-06T05:43:46.520Z,2.90
2019-05-06T05:46:16.456Z,3.13
2019-05-06T05:49:07.409Z,3.17
2019-05-06T05:51:36.566Z,3.43
2019-05-06T05:54:06.323Z,2.97
2019-05-06T05:56:37.128Z,3.63
2019-05-06T05:59:07.702Z,4.97
2019-05-06T06:01:36.946Z,9.63
2019-05-06T06:04:06.304Z,3.70
2019-05-06T06:06:36.532Z,3.27
2019-05-06T06:09:06.054Z,3.10
2019-05-06T06:11:46.102Z,3.47
2019-05-06T06:14:48.481Z,3.60
2019-05-06T06:17:43.052Z,3.10
2019-05-06T06:20:37.590Z,2.93
2019-05-06T06:23:26.387Z,3.00
2019-05-06T06:25:55.611Z,3.00
2019-05-06T06:28:25.343Z,3.03
2019-05-06T06:31:12.082Z,3.20
2019-05-06T06:33:42.826Z,3.50
2019-05-06T06:36:46.676Z,3.10
2019-05-06T06:39:19.370Z,3.20
2019-05-06T06:41:48.816Z,3.40
2019-05-06T06:44:22.137Z,3.57
2019-05-06T06:46:52.395Z,3.00
2019-05-06T06:49:22.330Z,3.47
2019-05-06T06:51:53.196Z,3.43
2019-05-06T06:54:23.209Z,3.43
2019-05-06T06:57:08.902Z,3.40
2019-05-06T06:59:42.655Z,3.70
2019-05-06T07:02:29.354Z,3.70
2019-05-06T07:05:27.873Z,3.50
2019-05-06T07:07:53.176Z,3.90
2019-05-06T07:10:43.027Z,3.50
2019-05-06T07:13:15.799Z,3.73
2019-05-06T07:15:45.119Z,3.60
2019-05-06T07:18:14.389Z,3.20
2019-05-06T07:21:05.396Z,3.57
2019-05-06T07:23:35.547Z,3.30
2019-05-06T07:26:04.731Z,3.20
2019-05-06T07:28:33.893Z,3.80
2019-05-06T07:31:17.203Z,3.50
2019-05-06T07:33:35.099Z,3.50
2019-05-06T07:36:04.554Z,3.93
2019-05-06T07:38:33.818Z,6.40
2019-05-06T07:41:17.882Z,11.53
2019-05-06T07:43:53.924Z,3.60
2019-05-06T07:46:33.135Z,3.70
2019-05-06T07:49:03.252Z,3.63
2019-05-06T07:51:32.816Z,3.77
2019-05-06T07:54:02.911Z,4.03
2019-05-06T07:56:32.341Z,3.83
2019-05-06T07:59:07.792Z,3.40
2019-05-06T08:01:37.617Z,3.90
2019-05-06T08:04:07.428Z,3.53
2019-05-06T08:06:36.688Z,3.60
2019-05-06T08:09:09.669Z,4.00
2019-05-06T08:11:39.327Z,3.60
2019-05-06T08:14:08.755Z,3.87
2019-05-06T08:16:44.695Z,4.00
2019-05-06T08:19:14.479Z,3.43
2019-05-06T08:21:45.407Z,4.30
2019-05-06T08:24:14.644Z,3.80
2019-05-06T08:26:44.453Z,3.80
2019-05-06T08:29:16.049Z,3.70
2019-05-06T08:31:45.717Z,4.53
2019-05-06T08:34:15.599Z,4.07
2019-05-06T08:37:02.449Z,4.23
2019-05-06T08:39:32.679Z,3.83
2019-05-06T08:42:02.702Z,3.97
2019-05-06T08:44:32.603Z,3.77
2019-05-06T08:47:02.524Z,3.00
2019-05-06T08:49:52.744Z,2.60
2019-05-06T08:52:26.309Z,3.00
2019-05-06T08:54:57.412Z,3.40
2019-05-06T08:57:27.453Z,3.00
2019-05-06T08:59:57.287Z,3.40
2019-05-06T09:02:27.052Z,2.70
2019-05-06T09:04:56.788Z,2.97
2019-05-06T09:07:26.032Z,3.80
2019-05-06T09:09:55.445Z,3.13
2019-05-06T09:12:24.650Z,3.00
2019-05-06T09:14:53.866Z,3.00
2019-05-06T09:17:23.061Z,3.23
2019-05-06T09:19:53.413Z,2.83
2019-05-06T09:22:23.482Z,3.17
2019-05-06T09:24:53.183Z,2.43
2019-05-06T09:27:42.198Z,2.63
2019-05-06T09:30:23.036Z,2.57
2019-05-06T09:32:52.912Z,2.70
2019-05-06T09:35:22.288Z,2.50
2019-05-06T09:37:53.459Z,2.67
2019-05-06T09:40:22.955Z,2.80
2019-05-06T09:42:52.246Z,3.20
2019-05-06T09:45:22.803Z,2.93
2019-05-06T09:48:29.901Z,2.40
2019-05-06T09:51:02.934Z,2.40
2019-05-06T09:53:37.667Z,2.27
2019-05-06T09:56:42.737Z,2.90
2019-05-06T09:59:12.968Z,2.67
2019-05-06T10:01:43.710Z,2.50
2019-05-06T10:04:13.707Z,2.70
2019-05-06T10:06:55.849Z,3.00
2019-05-06T10:09:16.115Z,2.60
2019-05-06T10:11:46.005Z,2.80
2019-05-06T10:14:15.304Z,2.97
2019-05-06T10:16:44.511Z,2.10
2019-05-06T10:19:14.234Z,1.97
2019-05-06T10:21:43.497Z,2.00
2019-05-06T10:24:12.611Z,2.07
2019-05-06T10:26:47.230Z,2.20
2019-05-06T10:29:34.862Z,2.27
2019-05-06T10:32:16.801Z,2.17
2019-05-06T10:34:46.557Z,2.50
2019-05-06T10:37:27.654Z,2.30
2019-05-06T10:40:03.511Z,2.67
2019-05-06T10:42:38.050Z,3.27
2019-05-06T10:45:12.417Z,3.00
2019-05-06T10:47:42.419Z,2.80
2019-05-06T10:50:12.650Z,2.70
2019-05-06T10:53:02.536Z,2.73
2019-05-06T10:55:32.469Z,2.50
2019-05-06T10:58:02.736Z,2.60
2019-05-06T11:00:33.177Z,2.43
2019-05-06T11:03:14.405Z,2.57
2019-05-06T11:05:43.157Z,4.57
2019-05-06T11:08:12.718Z,1.83
2019-05-06T11:10:45.187Z,2.50
2019-05-06T11:13:15.591Z,2.87
2019-05-06T11:15:43.952Z,3.03
2019-05-06T11:18:13.678Z,3.53
2019-05-06T11:20:44.124Z,4.50
2019-05-06T11:23:14.339Z,5.93
2019-05-06T11:25:43.909Z,4.63
2019-05-06T11:28:47.709Z,2.70
2019-05-06T11:31:39.023Z,3.13
2019-05-06T11:34:27.385Z,2.23
2019-05-06T11:37:18.754Z,3.37
2019-05-06T11:39:48.010Z,2.43
2019-05-06T11:42:27.653Z,1.80
2019-05-06T11:44:53.126Z,2.00
2019-05-06T11:47:23.361Z,2.10
2019-05-06T11:49:56.243Z,2.10
2019-05-06T11:52:25.790Z,2.03
2019-05-06T11:54:56.659Z,1.60
2019-05-06T11:57:25.819Z,1.50
2019-05-06T11:59:55.536Z,1.90
2019-05-06T12:02:25.629Z,1.90
2019-05-06T12:04:54.814Z,1.70
2019-05-06T12:07:24.924Z,1.50
2019-05-06T12:09:54.641Z,1.73
2019-05-06T12:12:24.523Z,2.00
2019-05-06T12:14:54.327Z,1.80
2019-05-06T12:17:24.536Z,1.90
2019-05-06T12:19:53.775Z,1.90
2019-05-06T12:22:25.562Z,2.07
2019-05-06T12:24:54.759Z,1.40
2019-05-06T12:27:43.102Z,1.43
2019-05-06T12:30:12.930Z,1.40
2019-05-06T12:32:48.054Z,1.30
2019-05-06T12:35:17.298Z,1.60
2019-05-06T12:37:49.716Z,1.30
2019-05-06T12:40:19.049Z,1.80
2019-05-06T12:42:53.656Z,1.77
2019-05-06T12:45:28.578Z,1.40
2019-05-06T12:48:26.402Z,1.53
2019-05-06T12:50:57.918Z,1.57
2019-05-06T12:53:27.305Z,1.60
2019-05-06T12:55:56.579Z,1.87
2019-05-06T12:58:25.733Z,1.60
2019-05-06T13:00:55.397Z,2.33
2019-05-06T13:03:24.720Z,1.90
2019-05-06T13:05:54.327Z,1.67
2019-05-06T13:08:32.458Z,1.60
2019-05-06T13:10:55.053Z,1.80
2019-05-06T13:13:24.176Z,1.50
2019-05-06T13:15:54.086Z,3.30
2019-05-06T13:18:23.338Z,2.37
2019-05-06T13:20:53.332Z,5.60
2019-05-06T13:23:34.675Z,11.80
2019-05-06T13:26:02.762Z,2.10
2019-05-06T13:28:34.816Z,2.20
2019-05-06T13:31:15.791Z,2.00
2019-05-06T13:33:54.161Z,1.80
2019-05-06T13:36:22.934Z,1.60
2019-05-06T13:39:09.110Z,2.03
2019-05-06T13:41:23.815Z,1.97
2019-05-06T13:44:02.693Z,1.93
2019-05-06T13:46:35.644Z,1.70
2019-05-06T13:49:42.977Z,2.17
2019-05-06T13:52:14.740Z,1.90
2019-05-06T13:54:43.903Z,1.70
2019-05-06T13:57:13.215Z,1.77
2019-05-06T13:59:44.021Z,1.80
2019-05-06T14:02:28.162Z,1.80
2019-05-06T14:04:58.447Z,1.50
2019-05-06T14:07:27.614Z,1.40
2019-05-06T14:09:56.833Z,1.60
2019-05-06T14:12:26.040Z,1.70
2019-05-06T14:14:55.165Z,1.83
2019-05-06T14:17:24.338Z,1.80
2019-05-06T14:19:53.642Z,1.63
2019-05-06T14:22:23.351Z,6.13
2019-05-06T14:24:58.983Z,4.47
2019-05-06T14:27:28.113Z,2.60
2019-05-06T14:30:09.801Z,2.30
2019-05-06T14:32:38.978Z,1.97
2019-05-06T14:35:08.379Z,1.80
2019-05-06T14:37:37.715Z,1.10
2019-05-06T14:40:08.620Z,1.13
2019-05-06T14:42:37.910Z,1.00
2019-05-06T14:45:07.154Z,1.30
2019-05-06T14:47:38.557Z,1.23
2019-05-06T14:50:07.794Z,1.33
2019-05-06T14:52:36.903Z,1.20
2019-05-06T14:55:22.526Z,1.27
2019-05-06T14:57:53.456Z,1.30
2019-05-06T15:00:23.191Z,1.53
2019-05-06T15:02:53.346Z,1.60
2019-05-06T15:05:22.765Z,1.50
2019-05-06T15:07:52.910Z,1.80
2019-05-06T15:10:25.576Z,1.60
2019-05-06T15:12:53.603Z,1.43
2019-05-06T15:15:22.979Z,2.60
2019-05-06T15:17:53.265Z,4.70
2019-05-06T15:20:23.166Z,3.60
2019-05-06T15:22:53.047Z,2.27
2019-05-06T15:25:22.828Z,1.83
2019-05-06T15:27:53.144Z,2.33
2019-05-06T15:30:33.499Z,1.93
2019-05-06T15:33:02.536Z,1.87
2019-05-06T15:35:50.063Z,2.20
2019-05-06T15:38:23.279Z,1.90
2019-05-06T15:40:52.758Z,1.97
2019-05-06T15:43:22.491Z,1.50
2019-05-06T15:45:52.592Z,1.63
2019-05-06T15:48:22.224Z,1.97
2019-05-06T15:50:53.279Z,1.93
2019-05-06T15:53:23.108Z,1.93
2019-05-06T15:55:55.106Z,10.30
2019-05-06T15:58:26.863Z,4.27
2019-05-06T16:00:58.185Z,4.03
2019-05-06T16:03:29.356Z,3.73
2019-05-06T16:06:02.044Z,1.97
2019-05-06T16:08:34.056Z,1.83
2019-05-06T16:11:03.338Z,1.67
2019-05-06T16:13:32.576Z,1.87
2019-05-06T16:16:06.950Z,2.10
2019-05-06T16:18:38.990Z,2.20
2019-05-06T16:21:08.243Z,2.27
2019-05-06T16:23:48.875Z,2.00
2019-05-06T16:26:18.181Z,1.90
2019-05-06T16:28:47.390Z,2.20
2019-05-06T16:31:16.580Z,2.00
2019-05-06T16:33:45.823Z,1.90
2019-05-06T16:36:15.464Z,1.80
2019-05-06T16:38:44.725Z,1.70
2019-05-06T16:41:16.280Z,4.43
2019-05-06T16:43:45.371Z,5.87
2019-05-06T16:46:15.041Z,3.17
2019-05-06T16:48:45.616Z,2.30
2019-05-06T16:51:15.316Z,1.90
2019-05-06T16:53:45.030Z,2.10
2019-05-06T16:56:33.350Z,2.00
2019-05-06T16:59:03.332Z,1.77
2019-05-06T17:01:34.980Z,1.80
2019-05-06T17:04:24.222Z,1.70
2019-05-06T17:06:54.384Z,1.40
2019-05-06T17:09:27.143Z,1.80
2019-05-06T17:11:54.405Z,1.70
2019-05-06T17:14:23.552Z,1.90
2019-05-06T17:16:52.884Z,1.50
2019-05-06T17:19:22.994Z,3.37
2019-05-06T17:21:53.212Z,5.57
2019-05-06T17:24:22.871Z,2.20
2019-05-06T17:26:56.022Z,3.20
2019-05-06T17:29:48.341Z,2.13
2019-05-06T17:32:34.146Z,5.53
2019-05-06T17:35:04.589Z,2.10
2019-05-06T17:38:05.434Z,2.83
2019-05-06T17:40:34.681Z,3.43
2019-05-06T17:43:03.917Z,2.63
2019-05-06T17:45:43.039Z,2.53
2019-05-06T17:48:27.991Z,6.20
2019-05-06T17:51:13.034Z,4.20
2019-05-06T17:53:44.528Z,9.13
2019-05-06T17:56:14.391Z,3.27
2019-05-06T17:58:43.683Z,1.93
2019-05-06T18:01:14.767Z,2.20
2019-05-06T18:03:44.171Z,1.90
2019-05-06T18:06:14.247Z,2.00
2019-05-06T18:08:44.409Z,1.83
2019-05-06T18:11:14.173Z,1.90
2019-05-06T18:13:44.334Z,1.50
2019-05-06T18:16:13.587Z,1.80
2019-05-06T18:18:42.751Z,1.77
2019-05-06T18:21:12.473Z,2.30
2019-05-06T18:23:42.315Z,2.50
2019-05-06T18:26:11.597Z,2.50
2019-05-06T18:28:42.912Z,2.17
2019-05-06T18:31:12.565Z,2.27
2019-05-06T18:33:43.149Z,2.30
2019-05-06T18:36:12.981Z,1.77
2019-05-06T18:38:42.516Z,2.30
2019-05-06T18:41:12.105Z,2.10
2019-05-06T18:43:42.239Z,2.10
2019-05-06T18:46:12.337Z,4.47
2019-05-06T18:48:42.735Z,7.20
2019-05-06T18:51:12.776Z,15.93
2019-05-06T18:53:42.652Z,6.60
2019-05-06T18:56:12.773Z,2.10
2019-05-06T18:58:42.986Z,2.10
2019-05-06T19:01:13.384Z,2.00
2019-05-06T19:03:58.611Z,1.67
2019-05-06T19:06:29.547Z,1.83
2019-05-06T19:09:10.354Z,1.90
2019-05-06T19:11:39.684Z,1.80
2019-05-06T19:14:09.003Z,2.23
2019-05-06T19:16:48.573Z,2.70
2019-05-06T19:19:09.315Z,3.50
2019-05-06T19:21:38.455Z,5.97
2019-05-06T19:24:08.062Z,3.50
2019-05-06T19:26:37.722Z,4.20
2019-05-06T19:29:07.065Z,3.53
2019-05-06T19:31:37.849Z,2.30
2019-05-06T19:34:08.002Z,1.87
2019-05-06T19:36:37.230Z,1.63
2019-05-06T19:39:07.570Z,1.80
2019-05-06T19:41:37.021Z,1.57
2019-05-06T19:44:06.251Z,1.63
2019-05-06T19:46:35.594Z,1.93
2019-05-06T19:49:05.787Z,2.30
2019-05-06T19:51:35.691Z,2.00
2019-05-06T19:54:05.180Z,1.80
2019-05-06T19:56:34.747Z,1.37
2019-05-06T19:59:04.839Z,1.43
2019-05-06T20:01:34.109Z,1.63
2019-05-06T20:04:05.982Z,1.60
2019-05-06T20:07:03.720Z,1.77
2019-05-06T20:09:57.358Z,1.40
2019-05-06T20:12:44.736Z,1.10
2019-05-06T20:15:52.148Z,1.30
2019-05-06T20:18:21.889Z,1.27
2019-05-06T20:20:52.812Z,1.50
2019-05-06T20:23:23.285Z,1.30
2019-05-06T20:25:54.177Z,1.57
2019-05-06T20:28:23.939Z,1.40
2019-05-06T20:30:53.247Z,1.70
2019-05-06T20:33:22.413Z,1.47
2019-05-06T20:35:52.619Z,1.90
2019-05-06T20:38:23.245Z,1.60
2019-05-06T20:40:52.646Z,1.73
2019-05-06T20:43:24.033Z,1.83
2019-05-06T20:45:52.810Z,1.93
2019-05-06T20:48:23.515Z,1.60
2019-05-06T20:50:53.421Z,1.37
2019-05-06T20:53:23.230Z,1.43
2019-05-06T20:55:53.230Z,1.70
2019-05-06T20:58:23.119Z,2.17
2019-05-06T21:00:52.863Z,1.60
2019-05-06T21:03:22.582Z,1.40
2019-05-06T21:05:52.385Z,1.60
2019-05-06T21:08:22.226Z,1.50
2019-05-06T21:10:52.837Z,1.30
2019-05-06T21:13:31.834Z,1.30
2019-05-06T21:15:53.174Z,1.53
2019-05-06T21:18:23.103Z,1.57
2019-05-06T21:20:52.483Z,1.80
2019-05-06T21:23:22.724Z,1.30
2019-05-06T21:25:52.455Z,1.20
2019-05-06T21:28:23.745Z,1.63
2019-05-06T21:30:53.185Z,1.30
2019-05-06T21:33:22.888Z,1.27
2019-05-06T21:35:52.422Z,1.73
2019-05-06T21:38:22.701Z,1.23
2019-05-06T21:40:52.698Z,1.53
2019-05-06T21:43:22.687Z,1.60
2019-05-06T21:45:54.163Z,1.80
2019-05-06T21:48:24.018Z,1.60
2019-05-06T21:50:53.985Z,1.57
2019-05-06T21:53:23.701Z,1.30
2019-05-06T21:55:53.502Z,1.50
2019-05-06T21:58:23.260Z,1.60
2019-05-06T22:00:58.972Z,1.33
2019-05-06T22:03:32.478Z,1.57
2019-05-06T22:06:02.258Z,1.20
2019-05-06T22:08:32.881Z,1.40
2019-05-06T22:11:03.099Z,1.20
2019-05-06T22:13:33.966Z,1.50
2019-05-06T22:16:04.723Z,1.50
2019-05-06T22:18:34.184Z,2.03
2019-05-06T22:21:18.575Z,1.90
2019-05-06T22:23:51.396Z,1.67
2019-05-06T22:26:22.829Z,1.90
2019-05-06T22:28:52.602Z,1.40
2019-05-06T22:31:24.378Z,1.23
2019-05-06T22:33:55.583Z,1.50
2019-05-06T22:36:24.911Z,1.90
2019-05-06T22:38:54.841Z,1.60
2019-05-06T22:41:25.621Z,1.90
2019-05-06T22:43:54.991Z,1.53
2019-05-06T22:46:24.219Z,1.80
2019-05-06T22:48:54.480Z,1.90
2019-05-06T22:51:24.534Z,1.60
2019-05-06T22:53:54.334Z,1.57
2019-05-06T22:56:24.117Z,1.83
2019-05-06T22:58:53.911Z,1.57
2019-05-06T23:01:38.982Z,1.50
2019-05-06T23:04:08.589Z,1.70
2019-05-06T23:06:37.746Z,1.80
2019-05-06T23:09:07.577Z,1.60
2019-05-06T23:11:37.048Z,1.60
2019-05-06T23:14:06.684Z,1.47
2019-05-06T23:16:36.389Z,1.60
2019-05-06T23:19:06.195Z,1.70
2019-05-06T23:21:35.998Z,1.70
2019-05-06T23:24:05.666Z,1.80
2019-05-06T23:26:34.913Z,1.63
2019-05-06T23:29:04.534Z,1.60
2019-05-06T23:31:34.271Z,1.70
2019-05-06T23:34:05.217Z,1.70
2019-05-06T23:36:53.838Z,1.70
2019-05-06T23:39:57.835Z,1.67
2019-05-06T23:42:44.778Z,1.70
2019-05-06T23:45:32.453Z,1.77
2019-05-06T23:48:38.679Z,1.50
2019-05-06T23:51:26.232Z,1.57
2019-05-06T23:54:32.839Z,1.90
2019-05-06T23:57:02.830Z,1.60
2019-05-06T23:59:32.354Z,1.73
